Time;durP1;ratioP1;P1;durP2;ratioP2;P2;SDS_P1;SDS_P2;PMS_P1;PMS_P2;Temp;Humidity;BMP_temperature;BMP_pressure;BME280_temperature;BME280_humidity;BME280_pressure;Samples;Min_cycle;Max_cycle;Signal;HPM_P1;HPM_P2
2023/03/22 00:00:26;;;;;;;;;;;10.20;99.90;;;;;;5112550;28;19980;-69
2023/03/22 00:02:54;;;;;;;;;;;10.20;99.90;;;;;;5112123;28;19982;-68
2023/03/22 00:05:19;;;;;;;;;;;10.10;99.90;;;;;;5112430;28;19976;-69
2023/03/22 00:07:45;;;;;;;;;;;10.10;99.90;;;;;;5094057;28;19924;-71
2023/03/22 00:10:10;;;;;;;;;;;10.20;99.90;;;;;;5112652;28;20041;-69
2023/03/22 00:12:36;;;;;;;;;;;10.10;99.90;;;;;;5112575;28;19924;-69
2023/03/22 00:15:02;;;;;;;;;;;10.10;99.90;;;;;;5094117;28;19975;-67
2023/03/22 00:17:29;;;;;;;;;;;10.10;99.90;;;;;;5112300;28;19928;-70
2023/03/22 00:19:54;;;;;;;;;;;10.20;99.90;;;;;;5093747;28;19924;-70
2023/03/22 00:22:20;;;;;;;;;;;10.10;99.90;;;;;;5112245;28;19931;-68
2023/03/22 00:24:46;;;;;;;;;;;10.10;99.90;;;;;;5094280;28;20490;-70
2023/03/22 00:27:11;;;;;;;;;;;10.10;99.90;;;;;;5112228;28;20027;-69
2023/03/22 00:29:37;;;;;;;;;;;10.10;99.90;;;;;;5112150;28;19935;-69
2023/03/22 00:32:03;;;;;;;;;;;10.10;99.90;;;;;;5111849;28;19929;-67
2023/03/22 00:34:32;;;;;;;;;;;10.10;99.90;;;;;;5094171;28;19928;-68
2023/03/22 00:36:58;;;;;;;;;;;10.10;99.90;;;;;;5111826;28;19953;-69
2023/03/22 00:39:23;;;;;;;;;;;10.10;99.90;;;;;;5112323;28;20437;-69
2023/03/22 00:41:50;;;;;;;;;;;10.00;99.90;;;;;;5111841;28;20064;-70
2023/03/22 00:44:15;;;;;;;;;;;10.00;99.90;;;;;;5111980;28;19928;-69
2023/03/22 00:46:41;;;;;;;;;;;10.00;99.90;;;;;;5093837;28;20199;-68
2023/03/22 00:49:06;;;;;;;;;;;10.00;99.90;;;;;;5095568;28;19952;-68
2023/03/22 00:51:32;;;;;;;;;;;10.00;99.90;;;;;;5097504;28;19931;-69
2023/03/22 00:53:58;;;;;;;;;;;10.00;99.90;;;;;;5097163;28;19985;-68
2023/03/22 00:56:27;;;;;;;;;;;10.00;99.90;;;;;;5115618;28;19923;-69
2023/03/22 00:58:53;;;;;;;;;;;10.00;99.90;;;;;;5097093;28;20502;-69
2023/03/22 01:01:19;;;;;;;;;;;10.00;99.90;;;;;;5097334;28;20002;-69
2023/03/22 01:03:48;;;;;;;;;;;9.90;99.90;;;;;;5115134;28;19946;-69
2023/03/22 01:06:14;;;;;;;;;;;9.90;99.90;;;;;;5114660;28;20442;-67
2023/03/22 01:08:39;;;;;;;;;;;9.90;99.90;;;;;;5097428;28;19928;-68
2023/03/22 01:11:06;;;;;;;;;;;9.90;99.90;;;;;;5114432;28;19930;-68
2023/03/22 01:13:32;;;;;;;;;;;9.90;99.90;;;;;;5080476;28;19979;-68
2023/03/22 01:15:58;;;;;;;;;;;9.80;99.90;;;;;;5115056;28;19924;-68
2023/03/22 01:18:23;;;;;;;;;;;9.80;99.90;;;;;;5115102;28;19977;-68
2023/03/22 01:20:50;;;;;;;;;;;9.90;99.90;;;;;;5115039;28;19974;-69
2023/03/22 01:23:15;;;;;;;;;;;9.80;99.90;;;;;;5114705;28;20247;-69
2023/03/22 01:25:41;;;;;;;;;;;9.80;99.90;;;;;;5080017;28;19972;-69
2023/03/22 01:28:07;;;;;;;;;;;9.80;99.90;;;;;;5096428;28;19928;-69
2023/03/22 01:30:33;;;;;;;;;;;9.80;99.90;;;;;;5096841;28;19924;-68
2023/03/22 01:32:59;;;;;;;;;;;9.80;99.90;;;;;;5114425;28;19931;-70
2023/03/22 01:35:24;;;;;;;;;;;9.80;99.90;;;;;;5079710;28;19924;-68
2023/03/22 01:37:50;;;;;;;;;;;9.80;99.90;;;;;;5114847;28;20083;-68
2023/03/22 01:40:16;;;;;;;;;;;9.80;99.90;;;;;;5114455;28;20016;-68
2023/03/22 01:42:42;;;;;;;;;;;9.80;99.90;;;;;;5096751;28;19923;-68
2023/03/22 01:45:14;;;;;;;;;;;9.80;99.90;;;;;;5095918;28;19930;-68
2023/03/22 01:47:46;;;;;;;;;;;9.70;99.90;;;;;;5096651;28;20030;-68
2023/03/22 01:50:12;;;;;;;;;;;9.70;99.90;;;;;;5096144;28;19979;-69
2023/03/22 01:52:39;;;;;;;;;;;9.70;99.90;;;;;;5114769;28;19931;-68
2023/03/22 01:55:05;;;;;;;;;;;9.70;99.90;;;;;;5095807;28;19923;-68
2023/03/22 01:57:36;;;;;;;;;;;9.70;99.90;;;;;;5114291;28;19924;-69
2023/03/22 02:00:09;;;;;;;;;;;9.70;99.90;;;;;;5113980;28;19923;-70
2023/03/22 02:02:35;;;;;;;;;;;9.70;99.90;;;;;;5114162;28;19930;-69
2023/03/22 02:05:02;;;;;;;;;;;9.70;99.90;;;;;;5113750;28;19924;-72
2023/03/22 02:07:30;;;;;;;;;;;9.70;99.90;;;;;;5096296;28;19927;-68
2023/03/22 02:09:56;;;;;;;;;;;9.60;99.90;;;;;;5114271;28;19978;-69
2023/03/22 02:12:28;;;;;;;;;;;9.60;99.90;;;;;;5113823;28;20150;-69
2023/03/22 02:15:12;;;;;;;;;;;9.70;99.90;;;;;;5113898;28;19974;-68
2023/03/22 02:17:58;;;;;;;;;;;9.60;99.90;;;;;;5113776;28;19979;-68
2023/03/22 02:20:42;;;;;;;;;;;9.60;99.90;;;;;;5113401;28;20553;-68
2023/03/22 02:23:11;;;;;;;;;;;9.60;99.90;;;;;;5078649;28;20007;-67
2023/03/22 02:25:42;;;;;;;;;;;9.60;99.90;;;;;;5113680;28;19924;-68
2023/03/22 02:28:17;;;;;;;;;;;9.60;99.90;;;;;;5095358;28;19977;-68
2023/03/22 02:31:02;;;;;;;;;;;9.60;99.90;;;;;;5095442;28;19930;-68
2023/03/22 02:33:40;;;;;;;;;;;9.60;99.90;;;;;;5095266;28;20270;-69
2023/03/22 02:36:24;;;;;;;;;;;9.60;99.90;;;;;;5113237;28;19938;-70
2023/03/22 02:39:03;;;;;;;;;;;9.60;99.90;;;;;;5095599;28;20270;-68
2023/03/22 02:41:49;;;;;;;;;;;9.60;99.90;;;;;;5113365;28;19928;-68
2023/03/22 02:44:20;;;;;;;;;;;9.60;99.90;;;;;;5112318;28;20270;-68
2023/03/22 02:46:51;;;;;;;;;;;9.60;99.90;;;;;;5113340;28;19946;-68
2023/03/22 02:49:19;;;;;;;;;;;9.60;99.90;;;;;;5113287;28;19930;-68
2023/03/22 02:51:47;;;;;;;;;;;9.70;99.90;;;;;;5095268;28;19930;-69
2023/03/22 02:54:28;;;;;;;;;;;9.60;99.90;;;;;;5112713;28;20014;-68
2023/03/22 02:57:07;;;;;;;;;;;9.60;99.90;;;;;;5113048;28;19923;-68
2023/03/22 02:59:36;;;;;;;;;;;9.60;99.90;;;;;;5095063;28;19932;-68
2023/03/22 03:02:02;;;;;;;;;;;9.60;99.90;;;;;;5094926;28;19930;-68
2023/03/22 03:04:29;;;;;;;;;;;9.70;99.90;;;;;;5112543;28;20010;-68
2023/03/22 03:06:57;;;;;;;;;;;9.70;99.90;;;;;;5113148;28;19928;-68
2023/03/22 03:09:23;;;;;;;;;;;9.70;99.90;;;;;;5112709;28;19928;-69
2023/03/22 03:11:50;;;;;;;;;;;9.70;99.90;;;;;;5112550;28;19930;-68
2023/03/22 03:14:20;;;;;;;;;;;9.70;99.90;;;;;;5112617;28;20295;-68
2023/03/22 03:16:48;;;;;;;;;;;9.70;99.90;;;;;;5112762;28;19924;-69
2023/03/22 03:19:21;;;;;;;;;;;9.70;99.90;;;;;;5112535;28;19923;-68
2023/03/22 03:21:53;;;;;;;;;;;9.70;99.90;;;;;;5094771;28;19923;-68
2023/03/22 03:24:18;;;;;;;;;;;9.70;99.90;;;;;;5112536;28;19980;-68
2023/03/22 03:26:53;;;;;;;;;;;9.80;99.90;;;;;;5094515;28;20355;-68
2023/03/22 03:29:39;;;;;;;;;;;9.80;99.90;;;;;;5094204;28;19973;-68
2023/03/22 03:32:13;;;;;;;;;;;9.80;99.90;;;;;;5112853;28;20015;-69
2023/03/22 03:34:59;;;;;;;;;;;9.80;99.90;;;;;;5094653;28;20010;-69
2023/03/22 03:37:27;;;;;;;;;;;9.80;99.90;;;;;;5111372;28;20026;-68
2023/03/22 03:39:56;;;;;;;;;;;9.80;99.90;;;;;;5112323;28;19930;-69
2023/03/22 03:42:24;;;;;;;;;;;9.80;99.90;;;;;;5112290;28;19971;-68
2023/03/22 03:44:50;;;;;;;;;;;9.80;99.90;;;;;;5112482;28;20302;-68
2023/03/22 03:47:15;;;;;;;;;;;9.80;99.90;;;;;;5112133;28;19924;-70
2023/03/22 03:49:41;;;;;;;;;;;9.80;99.90;;;;;;5112428;28;19958;-69
2023/03/22 03:52:07;;;;;;;;;;;9.80;99.90;;;;;;5094429;28;19927;-68
2023/03/22 03:54:32;;;;;;;;;;;9.80;99.90;;;;;;5093913;28;19924;-68
2023/03/22 03:56:58;;;;;;;;;;;9.80;99.90;;;;;;5112302;28;19931;-68
2023/03/22 03:59:23;;;;;;;;;;;9.80;99.90;;;;;;5094139;28;19924;-68
2023/03/22 04:01:50;;;;;;;;;;;9.70;99.90;;;;;;5112363;28;19930;-70
2023/03/22 04:04:25;;;;;;;;;;;9.80;99.90;;;;;;5112624;28;19974;-69
2023/03/22 04:06:55;;;;;;;;;;;9.80;99.90;;;;;;5112616;28;19924;-69
2023/03/22 04:09:21;;;;;;;;;;;9.80;99.90;;;;;;5112404;28;19923;-69
2023/03/22 04:11:47;;;;;;;;;;;9.70;99.90;;;;;;5094551;28;20287;-69
2023/03/22 04:14:13;;;;;;;;;;;9.80;99.90;;;;;;5112826;28;19923;-68
2023/03/22 04:16:39;;;;;;;;;;;9.80;99.90;;;;;;5111756;28;20240;-69
2023/03/22 04:19:04;;;;;;;;;;;9.80;99.90;;;;;;5112613;28;19923;-69
2023/03/22 04:21:30;;;;;;;;;;;9.80;99.90;;;;;;5112295;28;20349;-69
2023/03/22 04:23:55;;;;;;;;;;;9.80;99.90;;;;;;5114201;28;20409;-69
2023/03/22 04:26:21;;;;;;;;;;;9.80;99.90;;;;;;5115805;28;19923;-70
2023/03/22 04:28:47;;;;;;;;;;;9.80;99.90;;;;;;5081405;28;19928;-70
2023/03/22 04:31:12;;;;;;;;;;;9.80;99.90;;;;;;5098050;28;19971;-69
2023/03/22 04:33:38;;;;;;;;;;;9.80;99.90;;;;;;5115967;28;19923;-68
2023/03/22 04:36:05;;;;;;;;;;;9.80;99.90;;;;;;5098385;28;20292;-68
2023/03/22 04:38:31;;;;;;;;;;;9.80;99.90;;;;;;5115617;28;20032;-68
2023/03/22 04:40:57;;;;;;;;;;;9.80;99.90;;;;;;5115791;28;20442;-69
2023/03/22 04:43:23;;;;;;;;;;;9.80;99.90;;;;;;5115344;28;19930;-71
2023/03/22 04:45:48;;;;;;;;;;;9.80;99.90;;;;;;5115803;28;20250;-68
2023/03/22 04:48:14;;;;;;;;;;;9.70;99.90;;;;;;5115634;28;19928;-69
2023/03/22 04:50:39;;;;;;;;;;;9.70;99.90;;;;;;5115200;28;20331;-69
2023/03/22 04:53:06;;;;;;;;;;;9.70;99.90;;;;;;5115633;28;20031;-68
2023/03/22 04:55:33;;;;;;;;;;;9.70;99.90;;;;;;5114986;28;19969;-68
2023/03/22 04:57:58;;;;;;;;;;;9.70;99.90;;;;;;5097293;28;19924;-69
2023/03/22 05:00:24;;;;;;;;;;;9.70;99.90;;;;;;5115264;28;20018;-71
2023/03/22 05:02:50;;;;;;;;;;;9.70;99.90;;;;;;5114910;28;19924;-69
2023/03/22 05:05:15;;;;;;;;;;;9.80;99.90;;;;;;5115291;28;19924;-68
2023/03/22 05:07:41;;;;;;;;;;;9.80;99.90;;;;;;5114852;28;20293;-69
2023/03/22 05:10:07;;;;;;;;;;;9.80;99.90;;;;;;5097171;28;19971;-69
2023/03/22 05:12:32;;;;;;;;;;;9.80;99.90;;;;;;5114833;28;19924;-69
2023/03/22 05:14:59;;;;;;;;;;;9.80;99.90;;;;;;5097209;28;19923;-68
2023/03/22 05:17:25;;;;;;;;;;;9.80;99.90;;;;;;5097150;28;19931;-68
2023/03/22 05:19:51;;;;;;;;;;;9.80;99.90;;;;;;5114792;28;19924;-69
2023/03/22 05:22:18;;;;;;;;;;;9.80;99.90;;;;;;5080358;28;19965;-69
2023/03/22 05:24:43;;;;;;;;;;;9.90;99.90;;;;;;5114662;28;19947;-68
2023/03/22 05:27:09;;;;;;;;;;;9.80;99.90;;;;;;5114951;28;19924;-68
2023/03/22 05:29:35;;;;;;;;;;;9.90;99.90;;;;;;5096539;28;19924;-68
2023/03/22 05:32:04;;;;;;;;;;;9.90;99.90;;;;;;5096735;28;20269;-68
2023/03/22 05:34:34;;;;;;;;;;;9.90;99.90;;;;;;5095914;28;20014;-70
2023/03/22 05:37:00;;;;;;;;;;;9.90;99.90;;;;;;5096445;28;19923;-68
2023/03/22 05:39:25;;;;;;;;;;;9.90;99.90;;;;;;5096573;28;19928;-67
2023/03/22 05:41:51;;;;;;;;;;;9.90;99.90;;;;;;5114171;28;19930;-69
2023/03/22 05:44:17;;;;;;;;;;;9.90;99.90;;;;;;5096377;28;20019;-68
2023/03/22 05:46:42;;;;;;;;;;;9.90;99.90;;;;;;5113963;28;19924;-68
2023/03/22 05:49:08;;;;;;;;;;;9.90;99.90;;;;;;5096196;28;19965;-68
2023/03/22 05:51:40;;;;;;;;;;;9.90;99.90;;;;;;5113722;28;19924;-68
2023/03/22 05:54:07;;;;;;;;;;;10.00;99.90;;;;;;5114361;28;19988;-69
2023/03/22 05:56:33;;;;;;;;;;;9.90;99.90;;;;;;5114054;28;19930;-70
2023/03/22 05:58:58;;;;;;;;;;;9.90;99.90;;;;;;5113985;28;19927;-68
2023/03/22 06:01:24;;;;;;;;;;;9.90;99.90;;;;;;5114124;28;19924;-69
2023/03/22 06:03:49;;;;;;;;;;;9.90;99.90;;;;;;5095238;28;20037;-67
2023/03/22 06:06:15;;;;;;;;;;;9.90;99.90;;;;;;5095879;28;19924;-68
2023/03/22 06:08:41;;;;;;;;;;;10.00;99.90;;;;;;5095362;28;20022;-69
2023/03/22 06:11:07;;;;;;;;;;;10.00;99.90;;;;;;5095752;28;19928;-68
2023/03/22 06:13:32;;;;;;;;;;;10.00;99.90;;;;;;5113849;28;19930;-67
2023/03/22 06:15:59;;;;;;;;;;;9.90;99.90;;;;;;5113485;28;20301;-68
2023/03/22 06:18:25;;;;;;;;;;;10.00;99.90;;;;;;5113847;28;19962;-69
2023/03/22 06:20:50;;;;;;;;;;;10.00;99.90;;;;;;5078654;28;19931;-67
2023/03/22 06:23:16;;;;;;;;;;;10.00;99.90;;;;;;5095754;28;19923;-69
2023/03/22 06:25:42;;;;;;;;;;;10.00;99.90;;;;;;5113373;28;19977;-70
2023/03/22 06:28:07;;;;;;;;;;;10.00;99.90;;;;;;5113691;28;19928;-69
2023/03/22 06:30:33;;;;;;;;;;;10.10;99.90;;;;;;5113866;28;19924;-69
2023/03/22 06:33:03;;;;;;;;;;;10.10;99.90;;;;;;5095253;28;20334;-69
2023/03/22 06:35:28;;;;;;;;;;;10.10;99.90;;;;;;5113516;28;19938;-68
2023/03/22 06:37:54;;;;;;;;;;;10.10;99.90;;;;;;5113281;28;19924;-70
2023/03/22 06:40:20;;;;;;;;;;;10.10;99.90;;;;;;5113580;28;19931;-70
2023/03/22 06:42:45;;;;;;;;;;;10.20;99.90;;;;;;5094951;28;19924;-69
2023/03/22 06:45:15;;;;;;;;;;;10.20;99.90;;;;;;5113091;28;19924;-69
2023/03/22 06:47:41;;;;;;;;;;;10.20;99.90;;;;;;5112167;28;19923;-71
2023/03/22 06:50:06;;;;;;;;;;;10.20;99.90;;;;;;5113335;28;19924;-68
2023/03/22 06:52:32;;;;;;;;;;;10.30;99.90;;;;;;5113220;28;19924;-69
2023/03/22 06:54:57;;;;;;;;;;;10.30;99.90;;;;;;5094206;28;19939;-68
2023/03/22 06:57:23;;;;;;;;;;;10.30;99.90;;;;;;5095001;28;19924;-69
2023/03/22 06:59:49;;;;;;;;;;;10.40;99.90;;;;;;5112270;28;20411;-68
2023/03/22 07:02:14;;;;;;;;;;;10.40;99.90;;;;;;5111742;28;19932;-68
2023/03/22 07:04:40;;;;;;;;;;;10.40;99.90;;;;;;5112399;28;19954;-69
2023/03/22 07:07:05;;;;;;;;;;;10.40;99.90;;;;;;5077100;28;19931;-71
2023/03/22 07:09:31;;;;;;;;;;;10.40;99.90;;;;;;5113074;28;19975;-69
2023/03/22 07:11:57;;;;;;;;;;;10.50;99.90;;;;;;5112253;28;19931;-70
2023/03/22 07:14:22;;;;;;;;;;;10.60;99.90;;;;;;5112843;28;20019;-69
2023/03/22 07:16:48;;;;;;;;;;;10.60;99.90;;;;;;5112451;28;20295;-69
2023/03/22 07:19:13;;;;;;;;;;;10.70;99.90;;;;;;5094560;28;20347;-68
2023/03/22 07:21:39;;;;;;;;;;;10.70;99.90;;;;;;5094683;28;19924;-70
2023/03/22 07:24:06;;;;;;;;;;;10.70;99.90;;;;;;5094272;28;19998;-69
2023/03/22 07:26:32;;;;;;;;;;;10.70;99.90;;;;;;5094517;28;19924;-70
2023/03/22 07:28:57;;;;;;;;;;;10.70;99.90;;;;;;5094276;28;19924;-71
2023/03/22 07:31:23;;;;;;;;;;;10.70;99.90;;;;;;5094525;28;19924;-68
2023/03/22 07:33:48;;;;;;;;;;;10.70;99.90;;;;;;5093964;28;19923;-69
2023/03/22 07:36:14;;;;;;;;;;;10.70;99.90;;;;;;5094137;28;20026;-69
2023/03/22 07:38:40;;;;;;;;;;;10.80;99.90;;;;;;5112592;28;20457;-69
2023/03/22 07:41:05;;;;;;;;;;;10.80;99.90;;;;;;5093833;28;19923;-71
2023/03/22 07:43:31;;;;;;;;;;;10.80;99.90;;;;;;5112907;28;19982;-71
2023/03/22 07:45:57;;;;;;;;;;;10.80;99.90;;;;;;5112396;28;19934;-72
2023/03/22 07:48:23;;;;;;;;;;;10.80;99.90;;;;;;5094571;28;20464;-71
2023/03/22 07:50:49;;;;;;;;;;;10.70;99.90;;;;;;5077065;28;19974;-74
2023/03/22 07:53:14;;;;;;;;;;;10.70;99.90;;;;;;5094173;28;19986;-71
2023/03/22 07:55:43;;;;;;;;;;;10.80;99.90;;;;;;5077442;28;19928;-72
2023/03/22 07:58:09;;;;;;;;;;;10.80;99.90;;;;;;5096127;28;19931;-71
2023/03/22 08:00:34;;;;;;;;;;;10.70;99.90;;;;;;5098077;28;19924;-70
2023/03/22 08:03:00;;;;;;;;;;;10.70;99.90;;;;;;5097740;28;20018;-71
2023/03/22 08:05:26;;;;;;;;;;;10.80;99.90;;;;;;5081202;28;19923;-69
2023/03/22 08:07:53;;;;;;;;;;;10.90;99.90;;;;;;5115944;28;20278;-72
2023/03/22 08:10:18;;;;;;;;;;;11.00;99.90;;;;;;5116363;28;19923;-71
2023/03/22 08:12:44;;;;;;;;;;;11.10;99.90;;;;;;5081387;28;19931;-71
2023/03/22 08:15:10;;;;;;;;;;;11.20;99.90;;;;;;5116057;28;19924;-70
2023/03/22 08:17:36;;;;;;;;;;;11.30;99.90;;;;;;5115994;28;19924;-69
2023/03/22 08:20:06;;;;;;;;;;;11.30;99.90;;;;;;5097759;28;19986;-69
2023/03/22 08:22:31;;;;;;;;;;;11.30;99.90;;;;;;5116286;28;19931;-70
2023/03/22 08:24:57;;;;;;;;;;;11.30;99.90;;;;;;5115749;28;19928;-70
2023/03/22 08:27:22;;;;;;;;;;;11.30;99.90;;;;;;5080936;28;19924;-69
2023/03/22 08:29:48;;;;;;;;;;;11.20;99.90;;;;;;5097699;28;20369;-71
2023/03/22 08:32:14;;;;;;;;;;;11.30;99.90;;;;;;5115411;28;19923;-71
2023/03/22 08:34:40;;;;;;;;;;;11.30;99.90;;;;;;5097556;28;19924;-71
2023/03/22 08:37:06;;;;;;;;;;;11.30;99.90;;;;;;5114909;28;19992;-71
2023/03/22 08:39:32;;;;;;;;;;;11.30;99.90;;;;;;5098015;28;19923;-69
2023/03/22 08:41:58;;;;;;;;;;;11.40;99.90;;;;;;5115790;28;20365;-69
2023/03/22 08:44:24;;;;;;;;;;;11.40;99.90;;;;;;5115322;28;20369;-72
2023/03/22 08:46:50;;;;;;;;;;;11.40;99.90;;;;;;5115230;28;19923;-69
2023/03/22 08:49:16;;;;;;;;;;;11.50;99.90;;;;;;5097407;28;19919;-68
2023/03/22 08:51:41;;;;;;;;;;;11.60;99.90;;;;;;5115666;28;19968;-69
2023/03/22 08:54:07;;;;;;;;;;;11.70;99.90;;;;;;5115515;28;19928;-67
2023/03/22 08:56:36;;;;;;;;;;;11.70;99.90;;;;;;5115473;28;20297;-69
2023/03/22 08:59:06;;;;;;;;;;;11.70;99.90;;;;;;5115012;28;19931;-68
2023/03/22 09:01:33;;;;;;;;;;;11.70;99.90;;;;;;5097169;28;19924;-68
2023/03/22 09:03:58;;;;;;;;;;;11.80;99.90;;;;;;5096644;28;19923;-71
2023/03/22 09:06:25;;;;;;;;;;;11.90;99.90;;;;;;5115280;28;20087;-66
2023/03/22 09:08:51;;;;;;;;;;;11.90;99.90;;;;;;5114625;28;19999;-69
2023/03/22 09:11:17;;;;;;;;;;;11.90;99.90;;;;;;5096772;28;19977;-70
2023/03/22 09:13:43;;;;;;;;;;;11.90;99.90;;;;;;5096764;28;19924;-70
2023/03/22 09:16:09;;;;;;;;;;;11.90;99.90;;;;;;5114869;28;19931;-71
2023/03/22 09:18:35;;;;;;;;;;;11.90;99.90;;;;;;5115293;28;20319;-70
2023/03/22 09:21:01;;;;;;;;;;;11.80;99.90;;;;;;5115129;28;20013;-71
2023/03/22 09:23:27;;;;;;;;;;;11.80;99.90;;;;;;5114816;28;20566;-70
2023/03/22 09:25:53;;;;;;;;;;;11.80;99.90;;;;;;5115155;28;19924;-71
2023/03/22 09:28:18;;;;;;;;;;;11.80;99.90;;;;;;5096629;28;19924;-71
2023/03/22 09:30:44;;;;;;;;;;;11.70;99.90;;;;;;5115144;28;19954;-69
2023/03/22 09:33:10;;;;;;;;;;;11.80;99.90;;;;;;5114529;28;20301;-70
2023/03/22 09:35:38;;;;;;;;;;;11.80;99.90;;;;;;5114848;28;20004;-70
2023/03/22 09:38:05;;;;;;;;;;;11.80;99.90;;;;;;5114567;28;19923;-72
2023/03/22 09:40:31;;;;;;;;;;;11.90;99.90;;;;;;5096801;28;19931;-70
2023/03/22 09:42:59;;;;;;;;;;;11.80;99.90;;;;;;5114705;28;19946;-72
2023/03/22 09:45:36;;;;;;;;;;;11.80;99.90;;;;;;5114221;28;19919;-70
2023/03/22 09:48:04;;;;;;;;;;;11.80;99.90;;;;;;5115025;28;19938;-69
2023/03/22 09:50:31;;;;;;;;;;;11.80;99.90;;;;;;5096471;28;19969;-70
2023/03/22 09:52:57;;;;;;;;;;;11.70;99.90;;;;;;5113958;28;19993;-71
2023/03/22 09:55:22;;;;;;;;;;;11.70;99.90;;;;;;5095712;28;19932;-71
2023/03/22 09:57:50;;;;;;;;;;;11.60;99.90;;;;;;5114451;28;20397;-71
2023/03/22 10:00:21;;;;;;;;;;;11.60;99.90;;;;;;5113712;28;19923;-71
2023/03/22 10:02:52;;;;;;;;;;;11.60;99.90;;;;;;5114118;28;19936;-70
2023/03/22 10:05:22;;;;;;;;;;;11.60;99.90;;;;;;5113611;28;19946;-71
2023/03/22 10:08:23;;;;;;;;;;;11.50;99.90;;;;;;5079383;28;19924;-70
2023/03/22 10:10:51;;;;;;;;;;;11.40;99.90;;;;;;5011131;28;19930;-69
2023/03/22 10:13:22;;;;;;;;;;;11.30;99.90;;;;;;5093259;28;19975;-70
2023/03/22 10:15:50;;;;;;;;;;;11.30;99.90;;;;;;5095322;28;19923;-69
2023/03/22 10:18:18;;;;;;;;;;;11.20;99.90;;;;;;5113353;28;19954;-70
2023/03/22 10:20:49;;;;;;;;;;;11.20;99.90;;;;;;5095948;28;19971;-69
2023/03/22 10:23:19;;;;;;;;;;;11.20;99.90;;;;;;5113431;28;19935;-70
2023/03/22 10:25:44;;;;;;;;;;;11.10;99.90;;;;;;5113521;28;19969;-69
2023/03/22 10:28:15;;;;;;;;;;;11.00;99.90;;;;;;5113139;28;20373;-70
2023/03/22 10:30:41;;;;;;;;;;;11.00;99.90;;;;;;5114026;28;19945;-70
2023/03/22 10:33:15;;;;;;;;;;;11.00;99.90;;;;;;5113884;28;20327;-70
2023/03/22 10:35:42;;;;;;;;;;;11.00;99.90;;;;;;5095636;28;19932;-70
2023/03/22 10:38:16;;;;;;;;;;;10.90;99.90;;;;;;5113387;28;19931;-69
2023/03/22 10:40:43;;;;;;;;;;;10.90;99.90;;;;;;5113744;28;19924;-70
2023/03/22 10:43:27;;;;;;;;;;;10.90;99.90;;;;;;5113631;28;19924;-69
2023/03/22 10:45:53;;;;;;;;;;;10.80;99.90;;;;;;5113364;28;19930;-70
2023/03/22 10:48:25;;;;;;;;;;;10.80;99.90;;;;;;5094873;28;20291;-69
2023/03/22 10:50:52;;;;;;;;;;;10.80;99.90;;;;;;5113372;28;19924;-69
2023/03/22 10:53:26;;;;;;;;;;;11.10;99.90;;;;;;5113247;28;20332;-69
2023/03/22 10:55:52;;;;;;;;;;;10.70;99.90;;;;;;5113360;28;19924;-69
2023/03/22 10:58:22;;;;;;;;;;;10.70;99.90;;;;;;5095116;28;20388;-69
2023/03/22 11:00:52;;;;;;;;;;;10.60;99.90;;;;;;5112951;28;20373;-70
2023/03/22 11:03:30;;;;;;;;;;;10.60;99.90;;;;;;5094024;28;20400;-69
2023/03/22 11:06:00;;;;;;;;;;;10.60;99.90;;;;;;5113315;28;19928;-70
2023/03/22 11:08:25;;;;;;;;;;;10.60;99.90;;;;;;5094934;28;19924;-68
2023/03/22 11:10:51;;;;;;;;;;;10.60;99.90;;;;;;5112837;28;19930;-70
2023/03/22 11:13:21;;;;;;;;;;;10.70;99.90;;;;;;5112715;28;19950;-69
2023/03/22 11:15:51;;;;;;;;;;;10.60;99.90;;;;;;5113191;28;19997;-70
2023/03/22 11:18:17;;;;;;;;;;;10.60;99.90;;;;;;5112814;28;19928;-70
2023/03/22 11:21:01;;;;;;;;;;;10.60;99.90;;;;;;5113011;28;19924;-70
2023/03/22 11:23:30;;;;;;;;;;;10.60;99.90;;;;;;5112533;28;19927;-70
2023/03/22 11:25:59;;;;;;;;;;;10.70;99.90;;;;;;5095073;28;19923;-70
2023/03/22 11:28:33;;;;;;;;;;;10.70;99.90;;;;;;5112340;28;20389;-69
2023/03/22 11:31:15;;;;;;;;;;;10.70;99.90;;;;;;5113030;28;19923;-69
2023/03/22 11:33:53;;;;;;;;;;;10.70;99.90;;;;;;5094073;28;19977;-69
2023/03/22 11:36:19;;;;;;;;;;;10.70;99.90;;;;;;5112538;28;19924;-71
2023/03/22 11:38:45;;;;;;;;;;;10.70;99.90;;;;;;5094935;28;19946;-69
2023/03/22 11:41:13;;;;;;;;;;;10.70;99.90;;;;;;5112523;28;19963;-68
2023/03/22 11:43:42;;;;;;;;;;;10.70;99.90;;;;;;5094248;28;19920;-70
2023/03/22 11:46:09;;;;;;;;;;;10.80;99.90;;;;;;5093774;28;20379;-68
2023/03/22 11:48:35;;;;;;;;;;;10.80;99.90;;;;;;5112382;28;19924;-69
2023/03/22 11:51:09;;;;;;;;;;;10.80;99.90;;;;;;5112837;28;20014;-69
2023/03/22 11:53:36;;;;;;;;;;;10.80;99.90;;;;;;5112243;28;20415;-70
2023/03/22 11:56:06;;;;;;;;;;;10.80;99.90;;;;;;5092397;28;19923;-68
2023/03/22 11:58:41;;;;;;;;;;;10.80;99.90;;;;;;5092480;28;19923;-69
2023/03/22 12:01:09;;;;;;;;;;;10.80;99.90;;;;;;5112271;28;19978;-69
2023/03/22 12:03:37;;;;;;;;;;;10.80;99.90;;;;;;5110733;28;19968;-69
2023/03/22 12:06:04;;;;;;;;;;;10.80;99.90;;;;;;5111672;28;19928;-68
2023/03/22 12:08:50;;;;;;;;;;;10.80;99.90;;;;;;5109455;28;20396;-69
2023/03/22 12:11:21;;;;;;;;;;;10.80;99.90;;;;;;5042246;28;19924;-68
2023/03/22 12:13:52;;;;;;;;;;;10.80;99.90;;;;;;5110717;28;19934;-69
2023/03/22 12:16:23;;;;;;;;;;;10.80;99.90;;;;;;5109698;28;20077;-69
2023/03/22 12:19:24;;;;;;;;;;;10.80;99.90;;;;;;5093483;28;19924;-69
2023/03/22 12:21:50;;;;;;;;;;;10.80;99.90;;;;;;5009608;28;19980;-69
2023/03/22 12:24:26;;;;;;;;;;;10.80;99.90;;;;;;5090041;28;19924;-69
2023/03/22 12:26:54;;;;;;;;;;;10.80;99.90;;;;;;5111686;28;19931;-69
2023/03/22 12:29:20;;;;;;;;;;;10.80;99.90;;;;;;5111673;28;19931;-69
2023/03/22 12:32:05;;;;;;;;;;;10.80;99.90;;;;;;5110607;28;19919;-70
2023/03/22 12:34:37;;;;;;;;;;;10.80;99.90;;;;;;5075924;28;20368;-68
2023/03/22 12:37:05;;;;;;;;;;;10.80;99.90;;;;;;5111842;28;19924;-69
2023/03/22 12:39:34;;;;;;;;;;;10.90;99.90;;;;;;5111342;28;19923;-70
2023/03/22 12:42:26;;;;;;;;;;;10.90;99.90;;;;;;5111821;28;19924;-70
2023/03/22 12:44:55;;;;;;;;;;;10.90;99.90;;;;;;5090103;28;19932;-70
2023/03/22 12:47:26;;;;;;;;;;;10.90;99.90;;;;;;5115683;28;20007;-69
2023/03/22 12:49:55;;;;;;;;;;;10.90;99.90;;;;;;5115116;28;20060;-69
2023/03/22 12:52:23;;;;;;;;;;;10.90;99.90;;;;;;5115642;28;19924;-69
2023/03/22 12:54:49;;;;;;;;;;;10.80;99.90;;;;;;5114902;28;19996;-69
2023/03/22 12:57:15;;;;;;;;;;;10.80;99.90;;;;;;5115350;28;20024;-68
2023/03/22 12:59:43;;;;;;;;;;;10.70;99.90;;;;;;5114140;28;20404;-69
2023/03/22 13:02:16;;;;;;;;;;;10.70;99.90;;;;;;5096891;28;20269;-69
2023/03/22 13:04:42;;;;;;;;;;;10.70;99.90;;;;;;5096344;28;19924;-68
2023/03/22 13:07:11;;;;;;;;;;;10.70;99.90;;;;;;5114911;28;19924;-68
2023/03/22 13:09:39;;;;;;;;;;;10.60;99.90;;;;;;5113679;28;19930;-69
2023/03/22 13:12:17;;;;;;;;;;;10.60;99.90;;;;;;5114830;28;20400;-67
2023/03/22 13:14:49;;;;;;;;;;;10.60;99.90;;;;;;5096546;28;20026;-67
2023/03/22 13:17:21;;;;;;;;;;;10.60;99.90;;;;;;5080207;28;19934;-68
2023/03/22 13:20:14;;;;;;;;;;;10.60;99.90;;;;;;5096438;28;19927;-67
2023/03/22 13:22:40;;;;;;;;;;;10.70;99.90;;;;;;5110074;28;19924;-69
2023/03/22 13:25:12;;;;;;;;;;;10.70;99.90;;;;;;5096407;28;19924;-67
2023/03/22 13:27:40;;;;;;;;;;;10.70;99.90;;;;;;5096202;28;19969;-67
2023/03/22 13:30:32;;;;;;;;;;;10.60;99.90;;;;;;5114353;28;19930;-68
2023/03/22 13:33:07;;;;;;;;;;;10.60;99.90;;;;;;5091480;28;19924;-69
2023/03/22 13:35:35;;;;;;;;;;;10.60;99.90;;;;;;5114272;28;20391;-68
2023/03/22 13:38:02;;;;;;;;;;;10.60;99.90;;;;;;5095636;28;19938;-68
2023/03/22 13:40:33;;;;;;;;;;;10.50;99.90;;;;;;5096278;28;20022;-68
2023/03/22 13:43:09;;;;;;;;;;;10.50;99.90;;;;;;5114582;28;19928;-68
2023/03/22 13:45:35;;;;;;;;;;;10.50;99.90;;;;;;5114011;28;19924;-69
2023/03/22 13:48:03;;;;;;;;;;;10.50;99.90;;;;;;5114566;28;19923;-67
2023/03/22 13:50:29;;;;;;;;;;;10.60;99.90;;;;;;5111506;28;19924;-68
2023/03/22 13:53:03;;;;;;;;;;;10.50;99.90;;;;;;5114050;28;19981;-67
2023/03/22 13:55:35;;;;;;;;;;;10.60;99.90;;;;;;5113308;28;19931;-67
2023/03/22 13:58:01;;;;;;;;;;;10.50;99.90;;;;;;5114430;28;19963;-67
2023/03/22 14:00:30;;;;;;;;;;;10.50;99.90;;;;;;5096330;28;20386;-67
2023/03/22 14:03:00;;;;;;;;;;;10.50;99.90;;;;;;5095679;28;19920;-68
2023/03/22 14:05:31;;;;;;;;;;;10.50;99.90;;;;;;5114076;28;20015;-67
2023/03/22 14:07:58;;;;;;;;;;;10.50;99.90;;;;;;5114184;28;19920;-68
2023/03/22 14:10:25;;;;;;;;;;;10.50;99.90;;;;;;5095879;28;19924;-67
2023/03/22 14:12:53;;;;;;;;;;;10.50;99.90;;;;;;5113528;28;19967;-66
2023/03/22 14:15:30;;;;;;;;;;;10.40;99.90;;;;;;5113886;28;19924;-67
2023/03/22 14:17:55;;;;;;;;;;;10.50;99.90;;;;;;5113692;28;20427;-67
2023/03/22 14:20:23;;;;;;;;;;;10.40;99.90;;;;;;5095826;28;19924;-67
2023/03/22 14:22:59;;;;;;;;;;;10.40;99.90;;;;;;5113332;28;19976;-66
2023/03/22 14:25:26;;;;;;;;;;;10.40;99.90;;;;;;5095700;28;19938;-66
2023/03/22 14:27:52;;;;;;;;;;;10.50;99.90;;;;;;5095321;28;20403;-68